KSMO/SMO METAR and TAF weather

Enter ICAO airport designator
Station Type Date Time Source
KSMO METAR 2019/10/23 06:51 UTC NOAA

KSMO 230651Z AUTO 02005KT 10SM CLR 19/13 A2995 RMK AO2 SLP140 T01890128


Station Type Date Time Source
KSMO Decoded METAR 2019/10/23 06:51 UTC NOAA

SANTA MONICA MUNICIPAL AIRPORT , CA, United States (KSMO) 34-01N 118-27W 57M
Oct 23, 2019 - 02:51 AM EDT / 2019.10.23 0651 UTC
Wind: from the NNE (020 degrees) at 6 MPH (5 KT):0
Visibility: 10 mile(s):0
Sky conditions: clear
Temperature: 66.0 F (18.9 C)
Dew Point: 55.0 F (12.8 C)
Relative Humidity: 67%
Pressure (altimeter): 29.95 in. Hg (1014 hPa)
ob: KSMO 230651Z AUTO 02005KT 10SM CLR 19/13 A2995 RMK AO2 SLP140 T01890128
cycle: 7

Station Type Date Time Source
KSMO TAF 2019/10/23 06:22 UTC NOAA

TAF KSMO 230522Z 2306/2406 VRB03KT P6SM SKC
FM232000 23008KT P6SM SKC
FM240300 VRB03KT P6SM SKC

Example: see airport list